Time;durP1;ratioP1;P1;durP2;ratioP2;P2;SDS_P1;SDS_P2;PMS_P1;PMS_P2;Temp;Humidity;BMP_temperature;BMP_pressure;BME280_temperature;BME280_humidity;BME280_pressure;Samples;Min_cycle;Max_cycle;Signal;HPM_P1;HPM_P2
2022/04/02 00:00:50;;;;;;;10.40;7.30;;;;;;;0.18;77.24;98729.39;106391;1270;97919;-72
2022/04/02 00:03:22;;;;;;;11.40;7.60;;;;;;;0.14;77.12;98731.48;106213;1270;139801;-72
2022/04/02 00:05:55;;;;;;;9.20;7.30;;;;;;;0.11;77.38;98727.61;106314;1270;109529;-72
2022/04/02 00:08:27;;;;;;;9.10;7.30;;;;;;;0.10;77.36;98730.35;107746;1270;137567;-72
2022/04/02 00:10:59;;;;;;;13.30;7.80;;;;;;;0.13;77.73;98727.75;106563;1270;98034;-73
2022/04/02 00:13:31;;;;;;;15.90;8.40;;;;;;;0.13;77.62;98726.04;106393;1270;97855;-71
2022/04/02 00:16:04;;;;;;;10.50;8.60;;;;;;;0.14;77.53;98724.98;106333;1270;137149;-72
2022/04/02 00:18:36;;;;;;;11.50;8.40;;;;;;;0.11;77.47;98723.15;107839;1270;108924;-72
2022/04/02 00:21:09;;;;;;;10.30;7.30;;;;;;;0.06;77.54;98721.71;107765;1269;138157;-71
2022/04/02 00:23:41;;;;;;;10.90;7.20;;;;;;;0.03;77.51;98725.00;107405;1269;96134;-71
2022/04/02 00:26:15;;;;;;;9.50;7.10;;;;;;;0.04;77.71;98722.77;106135;1271;138917;-71
2022/04/02 00:28:49;;;;;;;9.80;7.20;;;;;;;0.05;77.45;98721.89;106381;1270;112534;-72
2022/04/02 00:31:23;;;;;;;10.20;7.50;;;;;;;0.07;77.33;98715.70;106373;1270;108930;-71
2022/04/02 00:33:55;;;;;;;11.80;8.30;;;;;;;0.06;77.28;98718.45;106140;1268;139007;-72
2022/04/02 00:36:27;;;;;;;12.20;8.10;;;;;;;0.04;77.31;98718.31;106408;1270;97963;-72
2022/04/02 00:38:59;;;;;;;12.10;6.90;;;;;;;0.01;77.47;98716.98;106223;1270;137440;-71
2022/04/02 00:41:32;;;;;;;13.70;7.90;;;;;;;-0.03;77.08;98716.34;106401;1270;112123;-72
2022/04/02 00:44:12;;;;;;;11.70;7.30;;;;;;;-0.07;77.12;98713.66;106308;1270;139090;-73
2022/04/02 00:46:45;;;;;;;11.30;7.20;;;;;;;-0.10;77.34;98721.73;106263;1270;109136;-73
2022/04/02 00:49:18;;;;;;;11.30;7.50;;;;;;;-0.10;77.62;98722.42;106353;1270;97838;-73
2022/04/02 00:51:53;;;;;;;9.50;7.00;;;;;;;-0.11;77.24;98726.73;106294;1270;137500;-73
2022/04/02 00:54:24;;;;;;;9.80;7.70;;;;;;;-0.11;77.49;98720.06;106276;1270;111728;-71
2022/04/02 00:56:56;;;;;;;12.10;8.40;;;;;;;-0.14;77.40;98725.23;107034;1270;138123;-72
2022/04/02 00:59:28;;;;;;;10.30;7.30;;;;;;;-0.17;77.34;98723.21;107297;1269;107766;-71
2022/04/02 01:02:01;;;;;;;8.90;7.20;;;;;;;-0.18;77.58;98724.59;106384;1270;138758;-72
2022/04/02 01:04:33;;;;;;;10.60;7.60;;;;;;;-0.18;77.34;98725.45;107876;1270;96328;-72
2022/04/02 01:07:05;;;;;;;8.30;6.60;;;;;;;-0.16;77.33;98723.21;107891;1270;111527;-72
2022/04/02 01:09:38;;;;;;;9.50;7.00;;;;;;;-0.13;77.55;98724.54;107759;1270;138648;-72
2022/04/02 01:12:12;;;;;;;10.90;7.40;;;;;;;-0.10;77.22;98721.41;107801;1271;108778;-72
2022/04/02 01:14:45;;;;;;;8.40;7.10;;;;;;;-0.10;77.15;98721.58;107732;1270;137633;-74
2022/04/02 01:17:23;;;;;;;12.90;8.70;;;;;;;-0.10;76.95;98723.29;107867;1270;96168;-73
2022/04/02 01:19:55;;;;;;;11.20;8.20;;;;;;;-0.13;76.86;98727.27;107728;1270;139727;-72
2022/04/02 01:22:32;;;;;;;9.90;7.30;;;;;;;-0.17;76.95;98723.04;107005;1271;107977;-71
2022/04/02 01:25:09;;;;;;;8.90;6.50;;;;;;;-0.21;77.10;98722.40;106355;1270;106937;-72
2022/04/02 01:27:48;;;;;;;10.10;7.70;;;;;;;-0.23;77.12;98717.98;106508;1270;138310;-73
2022/04/02 01:30:20;;;;;;;9.10;7.20;;;;;;;-0.22;77.16;98719.52;106412;1270;97835;-70
2022/04/02 01:32:52;;;;;;;9.30;7.40;;;;;;;-0.20;77.03;98717.43;106247;1268;137954;-71
2022/04/02 01:35:24;;;;;;;12.40;8.00;;;;;;;-0.22;76.96;98715.40;106473;1270;107288;-73
2022/04/02 01:38:25;;;;;;;12.30;7.20;;;;;;;-0.28;77.08;98718.41;106152;1270;138046;-73
2022/04/02 01:40:58;;;;;;;10.50;7.20;;;;;;;-0.32;76.80;98714.88;106247;1270;97815;-72
2022/04/02 01:43:37;;;;;;;9.60;7.30;;;;;;;-0.36;77.27;98721.23;106392;1270;97790;-73
2022/04/02 01:46:10;;;;;;;8.80;6.80;;;;;;;-0.41;77.11;98718.23;106250;1270;137777;-73
2022/04/02 01:48:43;;;;;;;9.50;6.70;;;;;;;-0.44;77.42;98723.20;107448;1270;108910;-73
2022/04/02 01:51:16;;;;;;;9.10;6.20;;;;;;;-0.44;77.47;98725.95;106147;1270;138254;-72
2022/04/02 01:53:48;;;;;;;8.10;6.10;;;;;;;-0.44;77.57;98724.41;106289;1270;97985;-72
2022/04/02 01:56:20;;;;;;;8.80;6.70;;;;;;;-0.43;77.44;98726.79;106202;1270;137512;-72
2022/04/02 01:58:57;;;;;;;8.00;6.60;;;;;;;-0.42;77.40;98725.23;106956;1270;112575;-73
2022/04/02 02:01:30;;;;;;;9.40;6.60;;;;;;;-0.44;77.67;98723.21;106324;1270;108764;-72
2022/04/02 02:04:03;;;;;;;9.50;6.80;;;;;;;-0.48;77.15;98727.20;106212;1270;137326;-73
2022/04/02 02:06:38;;;;;;;9.20;6.40;;;;;;;-0.51;77.24;98726.56;106349;1270;96585;-73
2022/04/02 02:09:14;;;;;;;9.00;6.10;;;;;;;-0.54;77.18;98728.29;106275;1270;138466;-72
2022/04/02 02:11:58;;;;;;;8.90;6.10;;;;;;;-0.56;77.63;98727.27;106413;1270;113130;-73
2022/04/02 02:14:44;;;;;;;9.40;5.80;;;;;;;-0.53;77.26;98732.73;106166;1270;138167;-73
2022/04/02 02:17:20;;;;;;;8.20;5.70;;;;;;;-0.51;77.54;98728.95;106349;1270;108900;-72
2022/04/02 02:20:01;;;;;;;8.80;6.50;;;;;;;-0.53;77.31;98729.98;106275;1270;137746;-72
2022/04/02 02:22:33;;;;;;;8.90;6.30;;;;;;;-0.55;77.53;98727.95;106290;1271;97838;-73
2022/04/02 02:25:06;;;;;;;10.90;6.30;;;;;;;-0.59;77.27;98728.52;106300;1270;110798;-73
2022/04/02 02:27:38;;;;;;;8.30;5.60;;;;;;;-0.64;77.69;98728.40;107795;1270;138789;-72
2022/04/02 02:30:14;;;;;;;7.90;5.50;;;;;;;-0.67;77.63;98731.86;106968;1270;108381;-72
2022/04/02 02:32:46;;;;;;;11.10;5.50;;;;;;;-0.67;77.82;98729.80;106573;1270;138276;-73
2022/04/02 02:38:11;;;;;;;8.10;5.70;;;;;;;-0.59;77.85;98728.86;106288;1269;140479;-72
2022/04/02 02:40:51;;;;;;;9.10;5.40;;;;;;;-0.60;77.51;98730.06;107836;1269;108969;-73
2022/04/02 02:43:29;;;;;;;7.00;5.60;;;;;;;-0.66;77.58;98730.99;107503;1270;107948;-73
2022/04/02 02:46:07;;;;;;;8.40;6.20;;;;;;;-0.68;77.50;98730.52;106163;1271;138451;-73
2022/04/02 02:48:40;;;;;;;9.10;6.50;;;;;;;-0.68;77.76;98730.50;107938;1269;96443;-73
2022/04/02 02:51:12;;;;;;;8.30;6.10;;;;;;;-0.68;77.50;98733.57;107786;1270;138141;-73
2022/04/02 02:53:44;;;;;;;12.00;6.40;;;;;;;-0.68;78.07;98734.26;107835;1270;108675;-73
2022/04/02 02:56:16;;;;;;;9.80;6.30;;;;;;;-0.72;77.39;98732.95;107735;1269;139905;-73
2022/04/02 02:58:49;;;;;;;7.70;6.00;;;;;;;-0.72;77.48;98738.91;107850;1270;96196;-73
2022/04/02 03:01:21;;;;;;;8.20;6.10;;;;;;;-0.69;77.52;98736.84;107273;1270;97938;-72
2022/04/02 03:03:55;;;;;;;8.30;5.80;;;;;;;-0.66;77.68;98743.79;106167;1270;138186;-73
2022/04/02 03:06:30;;;;;;;7.70;5.60;;;;;;;-0.64;77.58;98739.84;106295;1270;109226;-72
2022/04/02 03:09:03;;;;;;;8.80;6.30;;;;;;;-0.64;77.28;98741.20;106195;1270;138201;-72
2022/04/02 03:11:35;;;;;;;9.10;5.90;;;;;;;-0.66;77.53;98743.45;106311;1270;97801;-72
2022/04/02 03:14:07;;;;;;;9.70;6.40;;;;;;;-0.69;77.54;98734.27;106290;1270;138176;-73
2022/04/02 03:16:39;;;;;;;7.20;5.70;;;;;;;-0.72;77.64;98739.77;106305;1270;113101;-73
2022/04/02 03:19:14;;;;;;;8.10;5.70;;;;;;;-0.74;77.53;98738.92;106343;1270;107526;-72
2022/04/02 03:21:46;;;;;;;8.80;5.70;;;;;;;-0.77;77.79;98739.80;106156;1270;138368;-72
2022/04/02 03:24:18;;;;;;;8.70;5.70;;;;;;;-0.80;77.82;98742.74;106352;1270;97841;-72
2022/04/02 03:26:50;;;;;;;7.60;6.00;;;;;;;-0.84;77.48;98744.16;106207;1270;139133;-73
2022/04/02 03:29:32;;;;;;;9.00;6.40;;;;;;;-0.83;77.70;98744.15;106350;1270;112622;-72
2022/04/02 03:32:08;;;;;;;7.20;6.10;;;;;;;-0.84;77.98;98745.02;106275;1270;139443;-72
2022/04/02 03:34:40;;;;;;;9.00;6.10;;;;;;;-0.84;78.17;98742.46;107834;1270;108791;-73
2022/04/02 03:37:13;;;;;;;8.50;6.40;;;;;;;-0.84;77.80;98740.58;107263;1270;96647;-73
2022/04/02 03:39:45;;;;;;;10.00;6.40;;;;;;;-0.85;77.77;98743.83;106232;1270;138052;-73
2022/04/02 03:42:21;;;;;;;9.90;6.90;;;;;;;-0.86;77.74;98745.04;106358;1270;111750;-72
2022/04/02 03:44:54;;;;;;;9.60;6.90;;;;;;;-0.86;77.86;98738.04;106199;1270;138182;-73
2022/04/02 03:47:28;;;;;;;7.80;6.20;;;;;;;-0.87;77.91;98743.34;106233;1270;108787;-72
2022/04/02 03:50:01;;;;;;;10.10;6.60;;;;;;;-0.87;78.15;98748.29;106303;1270;138438;-73
2022/04/02 03:52:48;;;;;;;9.20;6.70;;;;;;;-0.87;78.26;98745.05;106263;1270;97911;-72
2022/04/02 03:55:23;;;;;;;;;;;;;;;-0.88;77.97;98747.45;106363;1270;112853;-72
2022/04/02 03:57:55;;;;;;;9.10;6.40;;;;;;;-0.89;78.18;98747.12;106285;1270;124753;-72
2022/04/02 04:00:29;;;;;;;7.80;5.80;;;;;;;-0.90;78.00;98746.09;106278;1270;109079;-72
2022/04/02 04:03:06;;;;;;;9.30;6.90;;;;;;;-0.92;78.15;98750.36;106297;1270;140285;-72
2022/04/02 04:05:46;;;;;;;10.00;7.20;;;;;;;-0.94;77.80;98750.21;106282;1270;97815;-72
2022/04/02 04:08:18;;;;;;;10.30;6.40;;;;;;;-0.95;78.29;98749.55;106164;1270;138798;-72
2022/04/02 04:10:51;;;;;;;9.20;6.80;;;;;;;-0.99;78.05;98750.44;106312;1270;108988;-73
2022/04/02 04:13:24;;;;;;;10.00;6.00;;;;;;;-1.02;78.34;98747.92;106433;1270;108930;-74
2022/04/02 04:16:01;;;;;;;9.20;6.40;;;;;;;-1.09;78.31;98753.61;106218;1270;140766;-72
2022/04/02 04:18:35;;;;;;;10.40;6.40;;;;;;;-1.13;78.22;98752.45;106358;1270;97925;-72
2022/04/02 04:21:07;;;;;;;8.30;6.40;;;;;;;-1.17;78.57;98751.80;106335;1270;138815;-73
2022/04/02 04:23:39;;;;;;;8.20;6.50;;;;;;;-1.20;78.88;98752.19;106294;1270;108377;-73
2022/04/02 04:26:13;;;;;;;9.90;7.00;;;;;;;-1.20;78.75;98753.39;106169;1270;138794;-72
2022/04/02 04:28:51;;;;;;;8.60;6.80;;;;;;;-1.20;78.95;98757.98;107894;1270;96030;-73
2022/04/02 04:31:24;;;;;;;9.40;6.60;;;;;;;-1.26;79.01;98759.39;106394;1270;97812;-73
2022/04/02 04:33:57;;;;;;;8.30;6.10;;;;;;;-1.27;78.61;98763.14;106229;1270;138998;-73
2022/04/02 04:36:30;;;;;;;7.70;6.00;;;;;;;-1.26;79.00;98761.09;106299;1270;108695;-73
2022/04/02 04:39:03;;;;;;;8.10;6.20;;;;;;;-1.27;78.80;98764.34;107041;1270;138411;-73
2022/04/02 04:41:41;;;;;;;11.80;6.30;;;;;;;-1.26;79.13;98766.90;107803;1270;95786;-72
2022/04/02 04:44:14;;;;;;;8.70;6.00;;;;;;;-1.26;78.70;98765.36;107768;1270;139084;-73
2022/04/02 04:46:47;;;;;;;8.30;5.80;;;;;;;-1.24;78.92;98767.41;107438;1270;112431;-73
2022/04/02 04:49:21;;;;;;;14.00;8.60;;;;;;;-1.25;78.98;98769.98;106272;1270;107722;-73
2022/04/02 04:51:59;;;;;;;9.50;6.50;;;;;;;-1.27;78.49;98774.23;106236;1270;138631;-72
2022/04/02 04:54:33;;;;;;;11.00;6.50;;;;;;;-1.26;78.80;98773.20;106282;1270;97926;-72
2022/04/02 04:57:09;;;;;;;8.90;6.50;;;;;;;-1.28;78.43;98774.40;107055;1270;138260;-73
2022/04/02 04:59:42;;;;;;;9.70;6.50;;;;;;;-1.33;78.53;98774.63;107841;1270;111951;-73
2022/04/02 05:02:17;;;;;;;9.00;6.30;;;;;;;-1.33;78.43;98782.64;107751;1270;138481;-72
2022/04/02 05:04:49;;;;;;;8.60;6.90;;;;;;;-1.29;78.52;98783.79;107468;1270;107952;-72
2022/04/02 05:07:38;;;;;;;9.60;7.20;;;;;;;-1.29;78.82;98781.74;106237;1270;97892;-73
2022/04/02 05:10:29;;;;;;;11.80;7.40;;;;;;;-1.31;78.69;98782.62;107777;1270;138880;-72
2022/04/02 05:13:03;;;;;;;12.70;7.10;;;;;;;-1.29;78.51;98784.64;106809;1270;112337;-74
2022/04/02 05:15:36;;;;;;;12.60;6.90;;;;;;;-1.31;78.62;98784.67;106183;1270;138460;-73
2022/04/02 05:18:10;;;;;;;12.60;7.00;;;;;;;-1.32;78.79;98785.02;107873;1270;108869;-73
2022/04/02 05:20:43;;;;;;;9.60;7.30;;;;;;;-1.34;78.39;98789.64;107724;1269;138619;-72
2022/04/02 05:23:15;;;;;;;9.80;7.30;;;;;;;-1.36;78.62;98789.83;107847;1270;96143;-71
2022/04/02 05:25:52;;;;;;;9.00;6.60;;;;;;;-1.35;78.67;98787.43;106965;1270;111051;-72
2022/04/02 05:28:27;;;;;;;10.80;6.40;;;;;;;-1.33;78.78;98786.05;106234;1270;138076;-74
2022/04/02 05:31:01;;;;;;;7.40;6.40;;;;;;;-1.30;78.59;98788.92;106300;1270;108872;-74
2022/04/02 05:33:35;;;;;;;9.10;6.60;;;;;;;-1.33;78.82;98790.82;106163;1270;138652;-74
2022/04/02 05:36:12;;;;;;;11.80;6.90;;;;;;;-1.33;78.50;98790.66;106266;1270;97862;-74
2022/04/02 05:38:45;;;;;;;7.80;6.10;;;;;;;-1.31;78.42;98791.83;106136;1270;138722;-74
2022/04/02 05:41:18;;;;;;;8.70;6.80;;;;;;;-1.27;78.56;98790.94;107851;1270;107726;-73
2022/04/02 05:43:50;;;;;;;11.80;7.70;;;;;;;-1.24;78.59;98796.73;107844;1270;109240;-73
2022/04/02 05:46:23;;;;;;;12.60;7.50;;;;;;;-1.24;78.35;98798.94;106386;1270;140180;-74
2022/04/02 05:48:55;;;;;;;9.60;6.50;;;;;;;-1.21;78.36;98800.13;106237;1270;97816;-72
2022/04/02 05:51:28;;;;;;;7.60;6.50;;;;;;;-1.23;78.22;98802.52;106251;1270;137966;-74
2022/04/02 05:54:00;;;;;;;9.30;6.20;;;;;;;-1.22;78.34;98802.85;106426;1270;107630;-74
2022/04/02 05:56:34;;;;;;;7.60;5.80;;;;;;;-1.23;78.62;98801.16;107763;1270;139149;-74
2022/04/02 05:59:06;;;;;;;8.30;6.60;;;;;;;-1.29;78.21;98807.15;107904;1270;96134;-73
2022/04/02 06:01:38;;;;;;;8.00;6.50;;;;;;;-1.28;78.20;98809.18;107909;1269;96065;-73
2022/04/02 06:04:12;;;;;;;10.40;6.70;;;;;;;-1.25;78.58;98811.41;107240;1270;138331;-74
2022/04/02 06:06:44;;;;;;;11.50;6.50;;;;;;;-1.23;78.27;98814.80;106763;1270;108938;-72
2022/04/02 06:09:17;;;;;;;10.10;6.40;;;;;;;-1.21;78.36;98820.07;106147;1270;139342;-74
2022/04/02 06:11:49;;;;;;;7.30;5.60;;;;;;;-1.20;77.93;98819.38;106302;1270;97915;-74
2022/04/02 06:14:22;;;;;;;8.40;6.20;;;;;;;-1.17;77.78;98823.27;106467;1270;140092;-73
2022/04/02 06:16:55;;;;;;;11.40;6.30;;;;;;;-1.14;77.60;98824.77;107892;1270;111377;-74
2022/04/02 06:19:27;;;;;;;9.20;6.10;;;;;;;-1.07;78.10;98824.73;106395;1270;109206;-74
2022/04/02 06:22:07;;;;;;;9.30;5.90;;;;;;;-1.05;77.71;98829.32;107679;1270;138886;-73
2022/04/02 06:24:40;;;;;;;8.70;5.70;;;;;;;-1.00;77.94;98829.27;107893;1270;96229;-75
2022/04/02 06:27:13;;;;;;;7.90;6.00;;;;;;;-0.98;77.65;98830.79;107773;1270;138116;-74
2022/04/02 06:29:45;;;;;;;6.90;5.10;;;;;;;-0.95;77.44;98833.83;107901;1270;111318;-74
2022/04/02 06:32:20;;;;;;;8.70;5.50;;;;;;;-0.91;77.61;98834.98;107775;1270;139463;-74
2022/04/02 06:34:53;;;;;;;10.30;5.30;;;;;;;-0.91;77.18;98836.86;107634;1270;108855;-73
2022/04/02 06:37:26;;;;;;;7.20;4.80;;;;;;;-0.90;77.17;98835.34;106268;1271;97826;-73
2022/04/02 06:39:58;;;;;;;7.40;5.20;;;;;;;-0.89;77.34;98839.25;107382;1270;138190;-73
2022/04/02 06:42:30;;;;;;;8.20;5.10;;;;;;;-0.89;76.90;98838.06;107919;1270;112530;-74
2022/04/02 06:45:04;;;;;;;7.90;5.20;;;;;;;-0.87;76.98;98845.04;107690;1270;138874;-73
2022/04/02 06:47:36;;;;;;;7.60;5.70;;;;;;;-0.84;77.37;98843.30;107889;1270;108404;-73
2022/04/02 06:50:11;;;;;;;7.80;5.30;;;;;;;-0.82;76.66;98851.12;107777;1270;138629;-74
2022/04/02 06:52:46;;;;;;;7.50;6.20;;;;;;;-0.78;76.67;98849.72;106785;1270;97736;-73
2022/04/02 06:55:19;;;;;;;8.80;6.40;;;;;;;-0.80;76.66;98847.86;106372;1270;110535;-73
2022/04/02 06:57:55;;;;;;;10.70;6.30;;;;;;;-0.80;76.83;98851.45;106209;1270;138299;-74
2022/04/02 07:00:27;;;;;;;9.00;6.70;;;;;;;-0.73;76.65;98850.35;106382;1270;108933;-74
2022/04/02 07:03:00;;;;;;;9.80;6.60;;;;;;;-0.71;76.68;98854.95;106231;1270;138258;-74
2022/04/02 07:05:32;;;;;;;10.80;7.30;;;;;;;-0.66;76.71;98855.42;106518;1270;97829;-73
2022/04/02 07:08:06;;;;;;;11.20;7.50;;;;;;;-0.63;76.72;98852.66;106277;1270;138483;-72
2022/04/02 07:10:38;;;;;;;9.00;7.10;;;;;;;-0.63;76.65;98854.36;106723;1270;108897;-73
2022/04/02 07:13:11;;;;;;;8.40;6.90;;;;;;;-0.65;76.70;98853.55;106330;1270;108904;-73
2022/04/02 07:15:44;;;;;;;8.40;6.70;;;;;;;-0.70;76.35;98854.79;107620;1269;138174;-74
2022/04/02 07:18:16;;;;;;;10.30;6.90;;;;;;;-0.69;76.51;98858.54;107872;1269;96034;-73
2022/04/02 07:20:50;;;;;;;10.10;6.70;;;;;;;-0.63;76.63;98856.06;107747;1270;139558;-74
2022/04/02 07:23:23;;;;;;;11.00;6.70;;;;;;;-0.55;76.42;98860.27;106554;1270;109068;-74
2022/04/02 07:25:57;;;;;;;9.70;6.70;;;;;;;-0.47;76.32;98856.78;106460;1270;107644;-74
2022/04/02 07:28:31;;;;;;;9.30;6.20;;;;;;;-0.44;76.15;98858.27;106748;1270;138773;-74
2022/04/02 07:31:03;;;;;;;16.10;10.30;;;;;;;-0.39;75.83;98857.19;106388;1270;98342;-75
2022/04/02 07:33:35;;;;;;;11.40;6.70;;;;;;;-0.38;76.07;98855.98;106278;1270;138850;-74
2022/04/02 07:36:17;;;;;;;10.10;7.30;;;;;;;-0.33;75.81;98857.66;106389;1270;107712;-73
2022/04/02 07:38:58;;;;;;;11.40;7.00;;;;;;;-0.32;75.97;98857.31;107750;1268;138915;-73
2022/04/02 07:41:38;;;;;;;10.40;6.60;;;;;;;-0.28;75.78;98862.38;106355;1270;97860;-73
2022/04/02 07:44:30;;;;;;;9.80;7.50;;;;;;;-0.21;75.89;98863.33;106365;1270;138396;-73
2022/04/02 07:47:03;;;;;;;15.60;8.00;;;;;;;-0.11;75.88;98861.85;107892;1270;111481;-74
2022/04/02 07:49:44;;;;;;;11.10;7.10;;;;;;;-0.02;75.64;98864.48;107892;1270;108949;-73
2022/04/02 07:52:16;;;;;;;11.50;7.00;;;;;;;0.04;75.23;98867.84;107641;1270;138381;-74
2022/04/02 07:55:04;;;;;;;9.80;6.90;;;;;;;0.08;75.13;98865.39;106442;1270;97832;-73
2022/04/02 07:57:42;;;;;;;10.80;7.20;;;;;;;0.14;75.06;98871.80;107789;1270;139252;-74
2022/04/02 08:00:26;;;;;;;9.00;6.60;;;;;;;0.19;74.94;98875.34;106642;1270;112677;-74
2022/04/02 08:02:58;;;;;;;10.70;6.80;;;;;;;0.23;74.91;98874.60;106226;1270;139305;-74
2022/04/02 08:05:31;;;;;;;12.70;7.20;;;;;;;0.24;74.50;98877.15;107857;1270;108352;-74
2022/04/02 08:08:09;;;;;;;11.00;6.70;;;;;;;0.22;74.27;98883.86;107768;1270;96180;-74
2022/04/02 08:10:46;;;;;;;12.90;6.90;;;;;;;0.27;74.40;98876.94;107746;1270;138621;-73
2022/04/02 08:13:20;;;;;;;9.80;6.60;;;;;;;0.35;74.71;98885.56;107908;1270;111508;-74
2022/04/02 08:15:56;;;;;;;7.30;5.90;;;;;;;0.43;74.32;98882.04;107324;1270;139145;-73
2022/04/02 08:18:28;;;;;;;8.30;5.90;;;;;;;0.46;74.02;98885.75;107876;1270;107477;-74
2022/04/02 08:21:02;;;;;;;9.60;6.00;;;;;;;0.50;74.06;98887.57;107764;1270;138922;-74
2022/04/02 08:23:39;;;;;;;8.40;6.20;;;;;;;0.61;74.00;98886.58;106280;1271;97729;-73
2022/04/02 08:26:23;;;;;;;8.00;5.80;;;;;;;0.70;73.69;98889.35;107861;1270;110323;-72
2022/04/02 08:29:10;;;;;;;10.10;6.20;;;;;;;0.74;73.60;98889.83;107771;1270;138085;-73
2022/04/02 08:31:57;;;;;;;7.70;5.70;;;;;;;0.74;72.96;98891.54;107847;1270;107471;-73
2022/04/02 08:34:43;;;;;;;13.10;6.70;;;;;;;0.74;73.11;98893.27;106465;1270;138191;-75
2022/04/02 08:37:25;;;;;;;10.40;6.30;;;;;;;0.76;73.16;98897.16;107925;1270;95776;-73
2022/04/02 08:40:11;;;;;;;10.20;6.30;;;;;;;0.85;73.13;98893.77;107244;1270;138606;-73
2022/04/02 08:43:37;;;;;;;9.40;6.90;;;;;;;0.86;72.82;98901.10;107859;1270;108213;-72
2022/04/02 08:46:22;;;;;;;13.80;7.20;;;;;;;0.81;72.36;98896.56;107417;1274;138727;-73
2022/04/02 08:48:59;;;;;;;12.80;7.60;;;;;;;0.76;72.21;98896.64;107521;1275;96203;-73
2022/04/02 08:51:44;;;;;;;11.30;7.50;;;;;;;0.73;72.45;98898.58;107406;1276;138787;-73
2022/04/02 08:54:28;;;;;;;10.60;7.40;;;;;;;0.74;72.74;98902.98;107550;1274;112513;-73
2022/04/02 08:57:11;;;;;;;13.00;7.60;;;;;;;0.86;72.78;98908.29;107436;1274;139527;-73
2022/04/02 08:59:47;;;;;;;11.90;7.30;;;;;;;0.97;72.71;98910.20;106330;1275;110566;-73
2022/04/02 09:03:09;;;;;;;12.20;7.50;;;;;;;1.03;72.71;98910.10;106077;1274;97829;-72
2022/04/02 09:06:03;;;;;;;10.60;6.90;;;;;;;1.09;72.19;98909.67;107571;1274;95733;-72
2022/04/02 09:09:05;;;;;;;17.20;10.20;;;;;;;1.14;72.05;98912.33;107513;1276;113170;-72
2022/04/02 09:12:00;;;;;;;9.80;6.80;;;;;;;1.25;72.12;98913.18;107459;1274;139158;-73
2022/04/02 09:14:46;;;;;;;9.70;6.50;;;;;;;1.33;71.78;98915.63;107505;1275;108071;-73
2022/04/02 09:17:37;;;;;;;10.60;7.00;;;;;;;1.38;71.53;98922.05;107433;1274;138174;-73
2022/04/02 09:20:21;;;;;;;8.90;6.60;;;;;;;1.49;71.76;98923.23;107556;1274;96083;-72
2022/04/02 09:23:10;;;;;;;8.30;7.00;;;;;;;1.63;71.46;98924.54;107701;1269;138139;-72
2022/04/02 09:26:22;;;;;;;11.90;7.50;;;;;;;1.73;71.27;98927.27;107875;1270;107763;-72
2022/04/02 09:29:17;;;;;;;9.60;6.60;;;;;;;1.84;71.09;98926.91;107695;1270;138369;-72
2022/04/02 09:32:19;;;;;;;13.10;7.40;;;;;;;1.99;71.04;98931.77;107858;1270;96348;-72
2022/04/02 09:35:23;;;;;;;10.00;6.50;;;;;;;2.20;70.88;98924.85;106886;1270;139288;-74
2022/04/02 09:38:27;;;;;;;8.90;6.60;;;;;;;2.40;70.81;98925.83;106222;1270;278976;-71
2022/04/02 09:41:11;;;;;;;10.00;6.30;;;;;;;2.52;69.59;98919.94;106242;1270;138519;-74
2022/04/02 09:43:59;;;;;;;9.40;6.60;;;;;;;2.56;69.18;98919.51;106485;1271;110456;-72
2022/04/02 09:47:00;;;;;;;9.10;6.30;;;;;;;2.63;69.20;98917.80;106360;1271;137601;-73
2022/04/02 09:49:42;;;;;;;11.40;8.20;;;;;;;2.69;68.62;98915.43;107923;1270;96017;-73
2022/04/02 09:52:22;;;;;;;9.50;6.70;;;;;;;2.69;68.07;98912.37;107804;1270;138709;-75
2022/04/02 09:55:07;;;;;;;8.80;6.70;;;;;;;2.62;67.66;98920.59;107857;1270;108817;-73
2022/04/02 09:57:54;;;;;;;9.10;6.60;;;;;;;2.59;68.01;98924.92;107727;1270;137575;-75
2022/04/02 10:00:31;;;;;;;10.30;6.60;;;;;;;2.70;68.34;98929.67;107904;1269;95996;-74
2022/04/02 10:03:06;;;;;;;;;;;;;;;2.84;68.21;98925.42;107922;1270;96158;-75
2022/04/02 10:06:08;;;;;;;10.00;6.80;;;;;;;2.96;68.44;98928.23;106964;1270;124326;-74
2022/04/02 10:08:54;;;;;;;10.40;7.60;;;;;;;3.15;67.94;98927.79;106217;1270;109520;-73
2022/04/02 10:11:30;;;;;;;9.50;7.30;;;;;;;3.26;67.68;98928.39;106682;1270;138340;-74
2022/04/02 10:14:04;;;;;;;12.30;7.80;;;;;;;3.43;67.53;98929.21;106372;1270;97815;-73
2022/04/02 10:16:37;;;;;;;11.00;7.40;;;;;;;3.52;67.18;98926.55;106752;1271;137921;-74
2022/04/02 10:19:11;;;;;;;11.10;6.70;;;;;;;3.62;66.82;98926.67;106313;1270;111959;-75
2022/04/02 10:21:49;;;;;;;12.60;7.80;;;;;;;3.68;66.57;98928.58;106209;1270;137761;-73
2022/04/02 10:24:24;;;;;;;9.00;6.80;;;;;;;3.69;66.25;98930.10;106402;1271;109014;-72
2022/04/02 10:26:58;;;;;;;11.40;6.80;;;;;;;3.73;66.23;98926.56;106378;1270;97835;-74
2022/04/02 10:29:56;;;;;;;9.50;7.30;;;;;;;3.69;65.99;98929.41;106293;1270;137316;-74
2022/04/02 10:32:57;;;;;;;11.00;6.80;;;;;;;3.74;66.35;98929.27;106483;1270;112118;-74
2022/04/02 10:35:30;;;;;;;16.40;7.90;;;;;;;3.83;66.29;98936.11;106962;1270;138257;-73
2022/04/02 10:38:17;;;;;;;12.50;8.00;;;;;;;3.90;66.02;98936.24;106379;1270;108182;-74
2022/04/02 10:40:53;;;;;;;10.10;7.90;;;;;;;3.93;65.44;98939.77;106789;1270;137496;-73
2022/04/02 10:43:28;;;;;;;11.40;8.20;;;;;;;3.98;65.45;98940.20;106614;1270;97815;-74
2022/04/02 10:46:03;;;;;;;12.00;8.30;;;;;;;4.01;65.61;98936.31;106689;1270;137892;-74
2022/04/02 10:48:54;;;;;;;10.70;8.10;;;;;;;4.06;65.52;98939.27;106530;1270;108832;-74
2022/04/02 10:51:27;;;;;;;13.30;7.80;;;;;;;4.16;65.81;98945.02;106259;1270;138672;-73
2022/04/02 10:54:04;;;;;;;16.10;10.30;;;;;;;4.32;65.84;98944.09;106355;1270;97816;-74
2022/04/02 10:56:36;;;;;;;;;;;;;;;4.48;66.11;98944.85;106946;1270;97926;-74
2022/04/02 10:59:10;;;;;;;12.10;8.40;;;;;;;4.62;65.96;98944.25;106319;1271;123686;-73
2022/04/02 11:01:44;;;;;;;16.50;9.10;;;;;;;4.79;65.42;98938.59;106310;1270;108884;-73
2022/04/02 11:04:30;;;;;;;19.00;12.40;;;;;;;4.89;64.96;98936.91;106170;1271;137625;-73
2022/04/02 11:07:02;;;;;;;12.70;8.90;;;;;;;4.99;64.55;98940.39;107864;1270;95832;-74
2022/04/02 11:09:36;;;;;;;11.40;8.40;;;;;;;5.14;64.81;98941.15;107635;1270;138404;-73
2022/04/02 11:12:11;;;;;;;12.40;8.30;;;;;;;5.32;64.46;98944.00;106633;1270;111446;-75
2022/04/02 11:14:45;;;;;;;15.90;9.90;;;;;;;5.49;64.22;98937.13;107886;1270;108769;-74
2022/04/02 11:17:32;;;;;;;14.10;9.20;;;;;;;5.62;64.06;98935.65;107760;1270;138208;-75
2022/04/02 11:20:10;;;;;;;14.30;8.80;;;;;;;5.86;63.53;98936.05;107895;1269;95911;-74
2022/04/02 11:23:13;;;;;;;13.50;8.40;;;;;;;6.06;63.33;98934.71;106282;1271;137365;-73
2022/04/02 11:25:50;;;;;;;14.40;8.30;;;;;;;6.24;62.10;98929.74;106355;1270;112015;-74
2022/04/02 11:28:23;;;;;;;11.00;7.40;;;;;;;6.35;61.50;98928.86;107053;1271;137515;-73
2022/04/02 11:31:05;;;;;;;17.60;11.10;;;;;;;6.44;60.81;98925.05;107877;1271;107705;-74
2022/04/02 11:33:52;;;;;;;16.50;8.90;;;;;;;6.40;59.82;98922.95;107729;1270;138217;-74
2022/04/02 11:36:40;;;;;;;15.70;8.20;;;;;;;6.36;59.80;98919.64;106385;1270;97851;-73
2022/04/02 11:39:19;;;;;;;9.90;7.00;;;;;;;6.39;59.66;98923.88;106389;1271;111946;-74
2022/04/02 11:41:56;;;;;;;11.90;7.90;;;;;;;6.50;59.82;98925.70;107773;1270;137846;-72
2022/04/02 11:44:37;;;;;;;12.30;8.40;;;;;;;6.58;59.32;98925.40;107907;1270;108851;-72
2022/04/02 11:47:12;;;;;;;12.10;7.50;;;;;;;6.56;58.61;98927.37;107155;1270;138680;-73
2022/04/02 11:49:45;;;;;;;12.00;7.60;;;;;;;6.48;57.85;98930.60;106423;1271;97811;-75
2022/04/02 11:52:17;;;;;;;15.10;8.40;;;;;;;6.45;58.41;98929.34;107790;1270;138141;-73
2022/04/02 11:55:01;;;;;;;14.60;8.50;;;;;;;6.49;58.50;98925.42;107850;1270;105856;-72
2022/04/02 11:57:33;;;;;;;11.30;7.90;;;;;;;6.53;58.00;98930.27;107725;1271;138553;-73
2022/04/02 12:00:12;;;;;;;11.50;7.60;;;;;;;6.59;58.27;98928.30;107859;1269;96091;-74
2022/04/02 12:02:47;;;;;;;12.40;8.10;;;;;;;6.64;57.26;98922.05;107859;1271;95988;-73
2022/04/02 12:05:20;;;;;;;9.80;7.50;;;;;;;6.62;56.86;98922.48;106343;1271;138119;-72
2022/04/02 12:07:53;;;;;;;10.40;7.70;;;;;;;6.58;56.88;98925.58;106348;1271;109183;-73